sensor_id;sensor_type;location;lat;lon;timestamp;pressure;altitude;pressure_sealevel;temperature;humidity
216;BME280;64590;48.81286795;9.14184224;2023-03-31T00:02:11;97649.16;;;12.52;nan
216;BME280;64590;48.81286795;9.14184224;2023-03-31T00:04:39;97650.44;;;12.47;nan
216;BME280;64590;48.81286795;9.14184224;2023-03-31T00:07:12;97649.28;;;12.68;nan
216;BME280;64590;48.81286795;9.14184224;2023-03-31T00:09:39;97647.78;;;12.63;nan
216;BME280;64590;48.81286795;9.14184224;2023-03-31T00:12:06;97640.44;;;12.73;nan
216;BME280;64590;48.81286795;9.14184224;2023-03-31T00:14:34;97635.75;;;12.70;nan
216;BME280;64590;48.81286795;9.14184224;2023-03-31T00:17:01;97635.84;;;12.63;nan
216;BME280;64590;48.81286795;9.14184224;2023-03-31T00:19:28;97632.97;;;12.70;nan
216;BME280;64590;48.81286795;9.14184224;2023-03-31T00:21:57;97627.31;;;12.73;nan
216;BME280;64590;48.81286795;9.14184224;2023-03-31T00:24:26;97633.91;;;12.83;nan
216;BME280;64590;48.81286795;9.14184224;2023-03-31T00:26:57;97604.91;;;12.57;nan
216;BME280;64590;48.81286795;9.14184224;2023-03-31T00:29:23;97615.25;;;12.57;nan
216;BME280;64590;48.81286795;9.14184224;2023-03-31T00:31:51;97606.88;;;12.60;nan
216;BME280;64590;48.81286795;9.14184224;2023-03-31T00:34:18;97600.56;;;12.56;nan
216;BME280;64590;48.81286795;9.14184224;2023-03-31T00:36:45;97607.91;;;12.70;nan
216;BME280;64590;48.81286795;9.14184224;2023-03-31T00:39:13;97592.44;;;12.65;nan
216;BME280;64590;48.81286795;9.14184224;2023-03-31T00:41:41;97593.59;;;12.68;nan
216;BME280;64590;48.81286795;9.14184224;2023-03-31T00:44:10;97593.78;;;12.81;nan
216;BME280;64590;48.81286795;9.14184224;2023-03-31T00:46:41;97578.84;;;12.71;nan
216;BME280;64590;48.81286795;9.14184224;2023-03-31T00:49:18;97586.50;;;12.87;nan
216;BME280;64590;48.81286795;9.14184224;2023-03-31T00:51:48;97582.00;;;12.93;nan
216;BME280;64590;48.81286795;9.14184224;2023-03-31T00:54:17;97584.00;;;12.92;nan
216;BME280;64590;48.81286795;9.14184224;2023-03-31T00:56:48;97577.94;;;12.97;nan
216;BME280;64590;48.81286795;9.14184224;2023-03-31T00:59:18;97583.63;;;12.90;nan
216;BME280;64590;48.81286795;9.14184224;2023-03-31T01:01:47;97593.13;;;12.93;nan
216;BME280;64590;48.81286795;9.14184224;2023-03-31T01:04:16;97569.28;;;12.92;nan
216;BME280;64590;48.81286795;9.14184224;2023-03-31T01:06:53;97568.16;;;12.89;nan
216;BME280;64590;48.81286795;9.14184224;2023-03-31T01:09:22;97576.41;;;12.93;nan
216;BME280;64590;48.81286795;9.14184224;2023-03-31T01:11:50;97574.72;;;12.99;nan
216;BME280;64590;48.81286795;9.14184224;2023-03-31T01:14:17;97556.69;;;12.84;nan
216;BME280;64590;48.81286795;9.14184224;2023-03-31T01:16:44;97542.28;;;12.89;nan
216;BME280;64590;48.81286795;9.14184224;2023-03-31T01:19:18;97535.50;;;12.90;nan
216;BME280;64590;48.81286795;9.14184224;2023-03-31T01:22:03;97536.59;;;12.96;nan
216;BME280;64590;48.81286795;9.14184224;2023-03-31T01:27:36;97509.44;;;12.80;nan
216;BME280;64590;48.81286795;9.14184224;2023-03-31T01:36:41;97505.16;;;12.95;nan
216;BME280;64590;48.81286795;9.14184224;2023-03-31T01:42:19;97523.94;;;12.91;nan
216;BME280;64590;48.81286795;9.14184224;2023-03-31T01:44:58;97521.66;;;12.86;nan
216;BME280;64590;48.81286795;9.14184224;2023-03-31T01:47:31;97525.16;;;12.90;nan
216;BME280;64590;48.81286795;9.14184224;2023-03-31T01:50:07;97517.78;;;13.00;nan
216;BME280;64590;48.81286795;9.14184224;2023-03-31T01:52:39;97515.34;;;13.02;nan
216;BME280;64590;48.81286795;9.14184224;2023-03-31T01:55:11;97527.72;;;13.01;nan
216;BME280;64590;48.81286795;9.14184224;2023-03-31T01:57:46;97536.00;;;13.05;nan
216;BME280;64590;48.81286795;9.14184224;2023-03-31T02:00:18;97540.22;;;12.93;nan
216;BME280;64590;48.81286795;9.14184224;2023-03-31T02:02:53;97538.28;;;12.90;nan
216;BME280;64590;48.81286795;9.14184224;2023-03-31T02:05:25;97533.63;;;12.83;nan
216;BME280;64590;48.81286795;9.14184224;2023-03-31T02:07:55;97532.31;;;12.68;nan
216;BME280;64590;48.81286795;9.14184224;2023-03-31T02:10:24;97528.97;;;12.57;nan
216;BME280;64590;48.81286795;9.14184224;2023-03-31T02:12:59;97525.97;;;12.67;nan
216;BME280;64590;48.81286795;9.14184224;2023-03-31T02:15:29;97517.81;;;12.57;nan
216;BME280;64590;48.81286795;9.14184224;2023-03-31T02:17:59;97517.00;;;12.60;nan
216;BME280;64590;48.81286795;9.14184224;2023-03-31T02:20:30;97512.53;;;12.42;nan
216;BME280;64590;48.81286795;9.14184224;2023-03-31T02:22:58;97511.56;;;12.53;nan
216;BME280;64590;48.81286795;9.14184224;2023-03-31T02:25:29;97490.09;;;12.30;nan
216;BME280;64590;48.81286795;9.14184224;2023-03-31T02:28:03;97496.94;;;12.25;nan
216;BME280;64590;48.81286795;9.14184224;2023-03-31T02:30:38;97488.72;;;12.18;nan
216;BME280;64590;48.81286795;9.14184224;2023-03-31T02:33:09;97485.19;;;12.14;nan
216;BME280;64590;48.81286795;9.14184224;2023-03-31T02:35:35;97476.84;;;12.14;nan
216;BME280;64590;48.81286795;9.14184224;2023-03-31T02:38:02;97475.53;;;12.22;nan
216;BME280;64590;48.81286795;9.14184224;2023-03-31T02:40:31;97465.00;;;12.10;nan
216;BME280;64590;48.81286795;9.14184224;2023-03-31T02:42:59;97445.31;;;12.01;nan
216;BME280;64590;48.81286795;9.14184224;2023-03-31T02:45:39;97425.72;;;12.08;nan
216;BME280;64590;48.81286795;9.14184224;2023-03-31T02:48:09;97417.00;;;12.06;nan
216;BME280;64590;48.81286795;9.14184224;2023-03-31T02:50:47;97416.41;;;11.95;nan
216;BME280;64590;48.81286795;9.14184224;2023-03-31T02:53:25;97403.59;;;12.01;nan
216;BME280;64590;48.81286795;9.14184224;2023-03-31T02:56:06;97402.28;;;12.05;nan
216;BME280;64590;48.81286795;9.14184224;2023-03-31T03:01:51;97386.00;;;11.84;nan
216;BME280;64590;48.81286795;9.14184224;2023-03-31T03:07:24;97370.78;;;11.92;nan
216;BME280;64590;48.81286795;9.14184224;2023-03-31T03:10:00;97358.88;;;11.92;nan
216;BME280;64590;48.81286795;9.14184224;2023-03-31T03:12:32;97337.84;;;11.91;nan
216;BME280;64590;48.81286795;9.14184224;2023-03-31T03:15:07;97333.88;;;11.88;nan
216;BME280;64590;48.81286795;9.14184224;2023-03-31T03:17:38;97318.06;;;11.85;nan
216;BME280;64590;48.81286795;9.14184224;2023-03-31T03:20:08;97317.34;;;11.81;nan
216;BME280;64590;48.81286795;9.14184224;2023-03-31T03:22:35;97299.88;;;11.80;nan
216;BME280;64590;48.81286795;9.14184224;2023-03-31T03:25:02;97292.34;;;11.77;nan
216;BME280;64590;48.81286795;9.14184224;2023-03-31T03:27:29;97283.34;;;11.93;nan
216;BME280;64590;48.81286795;9.14184224;2023-03-31T03:29:57;97278.72;;;11.63;nan
216;BME280;64590;48.81286795;9.14184224;2023-03-31T03:32:24;97272.09;;;11.57;nan
216;BME280;64590;48.81286795;9.14184224;2023-03-31T03:34:51;97271.44;;;11.49;nan
216;BME280;64590;48.81286795;9.14184224;2023-03-31T03:37:18;97260.81;;;11.44;nan
216;BME280;64590;48.81286795;9.14184224;2023-03-31T03:39:44;97262.34;;;11.69;nan
216;BME280;64590;48.81286795;9.14184224;2023-03-31T03:42:11;97270.16;;;11.54;nan
216;BME280;64590;48.81286795;9.14184224;2023-03-31T03:44:37;97257.13;;;11.51;nan
216;BME280;64590;48.81286795;9.14184224;2023-03-31T03:47:04;97257.34;;;11.60;nan
216;BME280;64590;48.81286795;9.14184224;2023-03-31T03:49:32;97255.78;;;11.59;nan
216;BME280;64590;48.81286795;9.14184224;2023-03-31T03:51:58;97238.00;;;11.53;nan
216;BME280;64590;48.81286795;9.14184224;2023-03-31T03:54:25;97231.91;;;11.61;nan
216;BME280;64590;48.81286795;9.14184224;2023-03-31T03:56:51;97232.13;;;11.71;nan
216;BME280;64590;48.81286795;9.14184224;2023-03-31T03:59:18;97223.13;;;11.63;nan
216;BME280;64590;48.81286795;9.14184224;2023-03-31T04:01:45;97204.25;;;11.74;nan
216;BME280;64590;48.81286795;9.14184224;2023-03-31T04:04:11;97204.63;;;11.56;nan
216;BME280;64590;48.81286795;9.14184224;2023-03-31T04:06:39;97196.47;;;11.46;nan
216;BME280;64590;48.81286795;9.14184224;2023-03-31T04:09:06;97184.66;;;11.42;nan
216;BME280;64590;48.81286795;9.14184224;2023-03-31T04:11:33;97182.16;;;11.47;nan
216;BME280;64590;48.81286795;9.14184224;2023-03-31T04:14:00;97166.84;;;11.39;nan
216;BME280;64590;48.81286795;9.14184224;2023-03-31T04:16:27;97169.19;;;11.41;nan
216;BME280;64590;48.81286795;9.14184224;2023-03-31T04:18:55;97160.63;;;11.31;nan
216;BME280;64590;48.81286795;9.14184224;2023-03-31T04:21:24;97159.03;;;11.11;nan
216;BME280;64590;48.81286795;9.14184224;2023-03-31T04:23:53;97147.00;;;11.17;nan
216;BME280;64590;48.81286795;9.14184224;2023-03-31T04:26:27;97151.31;;;11.42;nan
216;BME280;64590;48.81286795;9.14184224;2023-03-31T04:29:07;97139.91;;;11.36;nan
216;BME280;64590;48.81286795;9.14184224;2023-03-31T04:31:34;97136.47;;;11.28;nan
216;BME280;64590;48.81286795;9.14184224;2023-03-31T04:34:03;97150.19;;;11.39;nan
216;BME280;64590;48.81286795;9.14184224;2023-03-31T04:36:31;97150.53;;;11.41;nan
216;BME280;64590;48.81286795;9.14184224;2023-03-31T04:38:59;97151.31;;;11.42;nan
216;BME280;64590;48.81286795;9.14184224;2023-03-31T04:41:26;97143.75;;;11.22;nan
216;BME280;64590;48.81286795;9.14184224;2023-03-31T04:43:53;97146.25;;;11.37;nan
216;BME280;64590;48.81286795;9.14184224;2023-03-31T04:46:20;97130.13;;;11.28;nan
216;BME280;64590;48.81286795;9.14184224;2023-03-31T04:48:47;97113.34;;;11.35;nan
216;BME280;64590;48.81286795;9.14184224;2023-03-31T04:51:13;97101.09;;;11.32;nan
216;BME280;64590;48.81286795;9.14184224;2023-03-31T04:53:40;97110.06;;;11.40;nan
216;BME280;64590;48.81286795;9.14184224;2023-03-31T04:56:08;97104.50;;;11.40;nan
216;BME280;64590;48.81286795;9.14184224;2023-03-31T04:58:35;97107.91;;;11.28;nan
216;BME280;64590;48.81286795;9.14184224;2023-03-31T05:01:02;97107.50;;;11.49;nan
216;BME280;64590;48.81286795;9.14184224;2023-03-31T05:03:30;97109.97;;;11.44;nan
216;BME280;64590;48.81286795;9.14184224;2023-03-31T05:05:57;97102.22;;;11.35;nan
216;BME280;64590;48.81286795;9.14184224;2023-03-31T05:08:24;97099.72;;;11.41;nan
216;BME280;64590;48.81286795;9.14184224;2023-03-31T05:10:51;97104.00;;;11.45;nan
216;BME280;64590;48.81286795;9.14184224;2023-03-31T05:13:19;97106.34;;;11.27;nan
216;BME280;64590;48.81286795;9.14184224;2023-03-31T05:15:46;97123.09;;;11.43;nan
216;BME280;64590;48.81286795;9.14184224;2023-03-31T05:18:15;97132.50;;;11.49;nan
216;BME280;64590;48.81286795;9.14184224;2023-03-31T05:20:41;97140.88;;;11.46;nan
216;BME280;64590;48.81286795;9.14184224;2023-03-31T05:23:08;97160.56;;;11.55;nan
216;BME280;64590;48.81286795;9.14184224;2023-03-31T05:25:34;97167.88;;;11.25;nan
216;BME280;64590;48.81286795;9.14184224;2023-03-31T05:28:01;97172.88;;;11.34;nan
216;BME280;64590;48.81286795;9.14184224;2023-03-31T05:30:29;97155.50;;;11.30;nan
216;BME280;64590;48.81286795;9.14184224;2023-03-31T05:32:56;97156.34;;;11.07;nan
216;BME280;64590;48.81286795;9.14184224;2023-03-31T05:35:23;97155.56;;;11.07;nan
216;BME280;64590;48.81286795;9.14184224;2023-03-31T05:37:50;97151.13;;;11.09;nan
216;BME280;64590;48.81286795;9.14184224;2023-03-31T05:40:16;97136.91;;;11.07;nan
216;BME280;64590;48.81286795;9.14184224;2023-03-31T05:42:43;97132.91;;;11.08;nan
216;BME280;64590;48.81286795;9.14184224;2023-03-31T05:45:10;97129.56;;;10.97;nan
216;BME280;64590;48.81286795;9.14184224;2023-03-31T05:47:38;97139.44;;;10.98;nan
216;BME280;64590;48.81286795;9.14184224;2023-03-31T05:50:05;97134.09;;;10.87;nan
216;BME280;64590;48.81286795;9.14184224;2023-03-31T05:52:34;97115.16;;;11.02;nan
216;BME280;64590;48.81286795;9.14184224;2023-03-31T05:55:01;97108.34;;;10.87;nan
216;BME280;64590;48.81286795;9.14184224;2023-03-31T05:57:27;97099.94;;;10.90;nan
216;BME280;64590;48.81286795;9.14184224;2023-03-31T05:59:54;97089.25;;;10.89;nan
216;BME280;64590;48.81286795;9.14184224;2023-03-31T06:02:20;97082.84;;;10.92;nan
216;BME280;64590;48.81286795;9.14184224;2023-03-31T06:04:48;97080.53;;;10.67;nan
216;BME280;64590;48.81286795;9.14184224;2023-03-31T06:07:16;97074.63;;;10.65;nan
216;BME280;64590;48.81286795;9.14184224;2023-03-31T06:09:44;97078.94;;;10.89;nan
216;BME280;64590;48.81286795;9.14184224;2023-03-31T06:12:10;97066.19;;;10.92;nan
216;BME280;64590;48.81286795;9.14184224;2023-03-31T06:14:37;97073.28;;;10.93;nan
216;BME280;64590;48.81286795;9.14184224;2023-03-31T06:17:04;97064.06;;;10.99;nan
216;BME280;64590;48.81286795;9.14184224;2023-03-31T06:19:30;97053.81;;;10.96;nan
216;BME280;64590;48.81286795;9.14184224;2023-03-31T06:21:58;97046.59;;;10.99;nan
216;BME280;64590;48.81286795;9.14184224;2023-03-31T06:24:25;97045.81;;;10.98;nan
216;BME280;64590;48.81286795;9.14184224;2023-03-31T06:26:51;97040.50;;;11.08;nan
216;BME280;64590;48.81286795;9.14184224;2023-03-31T06:29:18;97036.28;;;10.99;nan
216;BME280;64590;48.81286795;9.14184224;2023-03-31T06:31:44;97039.06;;;10.99;nan
216;BME280;64590;48.81286795;9.14184224;2023-03-31T06:34:11;97044.75;;;10.92;nan
216;BME280;64590;48.81286795;9.14184224;2023-03-31T06:36:37;97040.94;;;10.86;nan
216;BME280;64590;48.81286795;9.14184224;2023-03-31T06:39:05;97039.97;;;10.93;nan
216;BME280;64590;48.81286795;9.14184224;2023-03-31T06:41:32;97040.13;;;10.86;nan
216;BME280;64590;48.81286795;9.14184224;2023-03-31T06:43:58;97037.78;;;10.84;nan
216;BME280;64590;48.81286795;9.14184224;2023-03-31T06:46:25;97046.47;;;10.86;nan
216;BME280;64590;48.81286795;9.14184224;2023-03-31T06:48:51;97041.06;;;10.79;nan
216;BME280;64590;48.81286795;9.14184224;2023-03-31T06:51:18;97046.00;;;10.68;nan
216;BME280;64590;48.81286795;9.14184224;2023-03-31T06:53:45;97055.06;;;10.72;nan
216;BME280;64590;48.81286795;9.14184224;2023-03-31T06:56:13;97066.53;;;10.74;nan
216;BME280;64590;48.81286795;9.14184224;2023-03-31T06:58:40;97075.84;;;10.84;nan
216;BME280;64590;48.81286795;9.14184224;2023-03-31T07:01:06;97097.28;;;10.83;nan
216;BME280;64590;48.81286795;9.14184224;2023-03-31T07:03:33;97104.47;;;10.81;nan
216;BME280;64590;48.81286795;9.14184224;2023-03-31T07:05:59;97118.94;;;10.68;nan
216;BME280;64590;48.81286795;9.14184224;2023-03-31T07:08:26;97111.03;;;10.67;nan
216;BME280;64590;48.81286795;9.14184224;2023-03-31T07:10:54;97090.63;;;10.77;nan
216;BME280;64590;48.81286795;9.14184224;2023-03-31T07:13:23;97107.13;;;10.88;nan
216;BME280;64590;48.81286795;9.14184224;2023-03-31T07:15:50;97068.84;;;10.75;nan
216;BME280;64590;48.81286795;9.14184224;2023-03-31T07:18:18;97010.97;;;10.78;nan
216;BME280;64590;48.81286795;9.14184224;2023-03-31T07:20:47;97022.19;;;10.90;nan
216;BME280;64590;48.81286795;9.14184224;2023-03-31T07:23:13;97015.28;;;10.79;nan
216;BME280;64590;48.81286795;9.14184224;2023-03-31T07:25:40;96994.22;;;10.81;nan
216;BME280;64590;48.81286795;9.14184224;2023-03-31T07:28:07;97001.34;;;10.82;nan
216;BME280;64590;48.81286795;9.14184224;2023-03-31T07:30:35;97007.31;;;10.81;nan
216;BME280;64590;48.81286795;9.14184224;2023-03-31T07:33:02;97008.09;;;10.81;nan
216;BME280;64590;48.81286795;9.14184224;2023-03-31T07:35:29;97010.44;;;10.83;nan
216;BME280;64590;48.81286795;9.14184224;2023-03-31T07:37:56;97010.97;;;10.78;nan
216;BME280;64590;48.81286795;9.14184224;2023-03-31T07:40:25;97010.97;;;10.78;nan
216;BME280;64590;48.81286795;9.14184224;2023-03-31T07:42:52;97012.34;;;10.86;nan
216;BME280;64590;48.81286795;9.14184224;2023-03-31T07:45:19;97011.88;;;10.91;nan
216;BME280;64590;48.81286795;9.14184224;2023-03-31T07:47:48;97012.16;;;10.96;nan
216;BME280;64590;48.81286795;9.14184224;2023-03-31T07:50:15;97004.53;;;11.00;nan
216;BME280;64590;48.81286795;9.14184224;2023-03-31T07:52:43;97016.19;;;11.12;nan
216;BME280;64590;48.81286795;9.14184224;2023-03-31T07:55:10;96999.47;;;11.15;nan
216;BME280;64590;48.81286795;9.14184224;2023-03-31T07:57:37;96990.63;;;11.20;nan
216;BME280;64590;48.81286795;9.14184224;2023-03-31T08:00:06;96999.44;;;11.35;nan
216;BME280;64590;48.81286795;9.14184224;2023-03-31T08:02:40;97006.41;;;11.43;nan
216;BME280;64590;48.81286795;9.14184224;2023-03-31T08:05:09;96995.91;;;11.51;nan
216;BME280;64590;48.81286795;9.14184224;2023-03-31T08:07:37;97000.72;;;11.67;nan
216;BME280;64590;48.81286795;9.14184224;2023-03-31T08:10:05;96998.44;;;11.78;nan
216;BME280;64590;48.81286795;9.14184224;2023-03-31T08:12:32;96997.59;;;11.81;nan
216;BME280;64590;48.81286795;9.14184224;2023-03-31T08:14:59;96992.03;;;11.81;nan
216;BME280;64590;48.81286795;9.14184224;2023-03-31T08:17:26;96992.31;;;11.86;nan
216;BME280;64590;48.81286795;9.14184224;2023-03-31T08:19:53;97000.06;;;11.95;nan
216;BME280;64590;48.81286795;9.14184224;2023-03-31T08:22:21;96984.03;;;12.15;nan
216;BME280;64590;48.81286795;9.14184224;2023-03-31T08:24:48;96985.53;;;12.20;nan
216;BME280;64590;48.81286795;9.14184224;2023-03-31T08:27:14;96990.53;;;12.41;nan
216;BME280;64590;48.81286795;9.14184224;2023-03-31T08:29:41;96988.81;;;12.31;nan
216;BME280;64590;48.81286795;9.14184224;2023-03-31T08:32:08;96979.59;;;12.34;nan
216;BME280;64590;48.81286795;9.14184224;2023-03-31T08:34:34;96972.38;;;12.37;nan
216;BME280;64590;48.81286795;9.14184224;2023-03-31T08:37:02;96978.88;;;12.47;nan
216;BME280;64590;48.81286795;9.14184224;2023-03-31T08:39:30;96975.97;;;12.50;nan
216;BME280;64590;48.81286795;9.14184224;2023-03-31T08:41:59;96967.78;;;12.59;nan
216;BME280;64590;48.81286795;9.14184224;2023-03-31T08:44:30;96972.63;;;12.71;nan
216;BME280;64590;48.81286795;9.14184224;2023-03-31T08:47:01;96970.09;;;12.77;nan
216;BME280;64590;48.81286795;9.14184224;2023-03-31T08:49:32;96962.28;;;12.85;nan
216;BME280;64590;48.81286795;9.14184224;2023-03-31T08:52:04;96979.50;;;13.09;nan
216;BME280;64590;48.81286795;9.14184224;2023-03-31T08:54:39;96979.19;;;13.07;nan
216;BME280;64590;48.81286795;9.14184224;2023-03-31T08:57:14;96974.78;;;13.22;nan
216;BME280;64590;48.81286795;9.14184224;2023-03-31T08:59:44;96967.31;;;13.32;nan
216;BME280;64590;48.81286795;9.14184224;2023-03-31T09:02:17;96979.34;;;13.28;nan
216;BME280;64590;48.81286795;9.14184224;2023-03-31T09:05:00;96961.97;;;13.50;nan
216;BME280;64590;48.81286795;9.14184224;2023-03-31T09:07:39;96968.34;;;13.76;nan
216;BME280;64590;48.81286795;9.14184224;2023-03-31T09:10:25;96952.84;;;13.75;nan
216;BME280;64590;48.81286795;9.14184224;2023-03-31T09:12:56;96963.41;;;13.93;nan
216;BME280;64590;48.81286795;9.14184224;2023-03-31T09:15:34;96933.72;;;13.99;nan
216;BME280;64590;48.81286795;9.14184224;2023-03-31T09:18:12;96942.97;;;14.08;nan
216;BME280;64590;48.81286795;9.14184224;2023-03-31T09:20:45;96931.78;;;14.08;nan
216;BME280;64590;48.81286795;9.14184224;2023-03-31T09:23:20;96940.72;;;14.16;nan
216;BME280;64590;48.81286795;9.14184224;2023-03-31T09:25:49;96939.34;;;14.21;nan
216;BME280;64590;48.81286795;9.14184224;2023-03-31T09:28:19;96941.88;;;14.28;nan
216;BME280;64590;48.81286795;9.14184224;2023-03-31T09:30:47;96953.78;;;14.41;nan
216;BME280;64590;48.81286795;9.14184224;2023-03-31T09:33:17;96955.25;;;14.46;nan
216;BME280;64590;48.81286795;9.14184224;2023-03-31T09:35:44;96954.03;;;14.47;nan
216;BME280;64590;48.81286795;9.14184224;2023-03-31T09:38:11;96945.78;;;14.30;nan
216;BME280;64590;48.81286795;9.14184224;2023-03-31T09:40:38;96962.91;;;14.07;nan
216;BME280;64590;48.81286795;9.14184224;2023-03-31T09:43:09;96963.97;;;13.88;nan
216;BME280;64590;48.81286795;9.14184224;2023-03-31T09:45:38;96958.97;;;13.82;nan
216;BME280;64590;48.81286795;9.14184224;2023-03-31T09:48:11;96922.47;;;13.77;nan
216;BME280;64590;48.81286795;9.14184224;2023-03-31T09:50:42;96935.38;;;14.09;nan
216;BME280;64590;48.81286795;9.14184224;2023-03-31T09:53:14;96932.91;;;14.33;nan
216;BME280;64590;48.81286795;9.14184224;2023-03-31T09:55:44;96922.13;;;14.57;nan
216;BME280;64590;48.81286795;9.14184224;2023-03-31T09:58:14;96918.25;;;14.41;nan
216;BME280;64590;48.81286795;9.14184224;2023-03-31T10:00:43;96907.88;;;14.42;nan
216;BME280;64590;48.81286795;9.14184224;2023-03-31T10:03:21;96919.50;;;14.53;nan
216;BME280;64590;48.81286795;9.14184224;2023-03-31T10:05:50;96908.44;;;14.72;nan
216;BME280;64590;48.81286795;9.14184224;2023-03-31T10:08:23;96896.81;;;14.95;nan
216;BME280;64590;48.81286795;9.14184224;2023-03-31T10:10:53;96903.16;;;14.95;nan
216;BME280;64590;48.81286795;9.14184224;2023-03-31T10:13:23;96912.13;;;14.90;nan
216;BME280;64590;48.81286795;9.14184224;2023-03-31T10:15:52;96897.47;;;14.77;nan
216;BME280;64590;48.81286795;9.14184224;2023-03-31T10:18:20;96890.19;;;14.80;nan
216;BME280;64590;48.81286795;9.14184224;2023-03-31T10:20:57;96883.72;;;14.92;nan
216;BME280;64590;48.81286795;9.14184224;2023-03-31T10:23:26;96890.28;;;14.98;nan
216;BME280;64590;48.81286795;9.14184224;2023-03-31T10:25:54;96895.22;;;15.25;nan
216;BME280;64590;48.81286795;9.14184224;2023-03-31T10:28:22;96885.78;;;15.32;nan
216;BME280;64590;48.81286795;9.14184224;2023-03-31T10:30:51;96887.91;;;15.59;nan
216;BME280;64590;48.81286795;9.14184224;2023-03-31T10:33:21;96890.84;;;15.55;nan
216;BME280;64590;48.81286795;9.14184224;2023-03-31T10:35:53;96863.59;;;15.37;nan
216;BME280;64590;48.81286795;9.14184224;2023-03-31T10:38:24;96853.50;;;15.31;nan
216;BME280;64590;48.81286795;9.14184224;2023-03-31T10:40:53;96838.75;;;15.39;nan
216;BME280;64590;48.81286795;9.14184224;2023-03-31T10:43:24;96843.97;;;15.68;nan
216;BME280;64590;48.81286795;9.14184224;2023-03-31T10:45:53;96855.00;;;15.63;nan
216;BME280;64590;48.81286795;9.14184224;2023-03-31T10:48:24;96868.38;;;15.27;nan
216;BME280;64590;48.81286795;9.14184224;2023-03-31T10:50:52;96842.41;;;15.18;nan
216;BME280;64590;48.81286795;9.14184224;2023-03-31T10:53:19;96836.84;;;15.27;nan
216;BME280;64590;48.81286795;9.14184224;2023-03-31T10:56:00;96846.03;;;15.37;nan
216;BME280;64590;48.81286795;9.14184224;2023-03-31T10:58:51;96843.09;;;15.40;nan
216;BME280;64590;48.81286795;9.14184224;2023-03-31T11:01:29;96840.16;;;15.44;nan
216;BME280;64590;48.81286795;9.14184224;2023-03-31T11:04:10;96824.59;;;15.34;nan
216;BME280;64590;48.81286795;9.14184224;2023-03-31T11:06:50;96827.56;;;15.39;nan
216;BME280;64590;48.81286795;9.14184224;2023-03-31T11:09:31;96825.28;;;15.47;nan
216;BME280;64590;48.81286795;9.14184224;2023-03-31T11:12:09;96832.28;;;15.11;nan
216;BME280;64590;48.81286795;9.14184224;2023-03-31T11:14:53;96836.38;;;14.88;nan
216;BME280;64590;48.81286795;9.14184224;2023-03-31T11:17:32;96885.78;;;14.48;nan
216;BME280;64590;48.81286795;9.14184224;2023-03-31T11:20:11;96931.78;;;13.48;nan
216;BME280;64590;48.81286795;9.14184224;2023-03-31T11:22:45;97011.50;;;11.81;nan
216;BME280;64590;48.81286795;9.14184224;2023-03-31T11:25:24;96990.34;;;10.35;nan
216;BME280;64590;48.81286795;9.14184224;2023-03-31T11:28:17;96986.25;;;9.73;nan
216;BME280;64590;48.81286795;9.14184224;2023-03-31T11:30:49;96976.75;;;9.71;nan
216;BME280;64590;48.81286795;9.14184224;2023-03-31T11:33:31;96973.56;;;9.96;nan
216;BME280;64590;48.81286795;9.14184224;2023-03-31T11:36:12;96982.13;;;10.05;nan
216;BME280;64590;48.81286795;9.14184224;2023-03-31T11:38:52;96987.41;;;10.23;nan
216;BME280;64590;48.81286795;9.14184224;2023-03-31T11:41:31;96984.28;;;10.40;nan
216;BME280;64590;48.81286795;9.14184224;2023-03-31T11:44:01;97004.56;;;10.37;nan
216;BME280;64590;48.81286795;9.14184224;2023-03-31T11:46:37;96995.38;;;10.40;nan
216;BME280;64590;48.81286795;9.14184224;2023-03-31T11:49:11;96987.28;;;10.50;nan
216;BME280;64590;48.81286795;9.14184224;2023-03-31T11:51:44;96977.06;;;10.46;nan
216;BME280;64590;48.81286795;9.14184224;2023-03-31T11:54:17;96978.53;;;10.51;nan
216;BME280;64590;48.81286795;9.14184224;2023-03-31T11:56:45;96962.97;;;10.57;nan
216;BME280;64590;48.81286795;9.14184224;2023-03-31T11:59:14;96970.25;;;10.71;nan
216;BME280;64590;48.81286795;9.14184224;2023-03-31T12:01:46;96964.91;;;10.80;nan
216;BME280;64590;48.81286795;9.14184224;2023-03-31T12:04:24;96943.88;;;10.99;nan
216;BME280;64590;48.81286795;9.14184224;2023-03-31T12:08:13;96922.38;;;11.55;71.81
216;BME280;64590;48.81286795;9.14184224;2023-03-31T12:10:44;96917.59;;;11.88;71.42
216;BME280;64590;48.81286795;9.14184224;2023-03-31T12:13:30;96901.28;;;12.49;71.27
216;BME280;64590;48.81286795;9.14184224;2023-03-31T12:16:03;96903.97;;;13.07;68.82
216;BME280;64590;48.81286795;9.14184224;2023-03-31T12:18:33;96901.28;;;13.16;67.91
216;BME280;64590;48.81286795;9.14184224;2023-03-31T12:21:03;96908.19;;;12.98;64.89
216;BME280;64590;48.81286795;9.14184224;2023-03-31T12:23:35;96892.69;;;12.97;66.54
216;BME280;64590;48.81286795;9.14184224;2023-03-31T12:26:12;96891.59;;;13.08;65.88
216;BME280;64590;48.81286795;9.14184224;2023-03-31T12:28:41;96898.31;;;13.23;64.53
216;BME280;64590;48.81286795;9.14184224;2023-03-31T12:31:14;96882.56;;;13.67;65.08
216;BME280;64590;48.81286795;9.14184224;2023-03-31T12:33:44;96874.47;;;13.95;62.01
216;BME280;64590;48.81286795;9.14184224;2023-03-31T12:36:24;96878.34;;;14.32;60.71